Time;durP1;ratioP1;P1;durP2;ratioP2;P2;SDS_P1;SDS_P2;PMS_P1;PMS_P2;Temp;Humidity;BMP_temperature;BMP_pressure;BME280_temperature;BME280_humidity;BME280_pressure;Samples;Min_cycle;Max_cycle;Signal;HPM_P1;HPM_P2
2022/08/28 00:00:28;;;;;;;4.88;2.20;;;20.00;91.60;;;;;;5012719;28;20053;-79
2022/08/28 00:02:55;;;;;;;12.52;2.60;;;20.00;91.60;;;;;;5022828;28;20030;-79
2022/08/28 00:05:23;;;;;;;5.18;2.05;;;19.80;91.60;;;;;;5009951;28;20036;-79
2022/08/28 00:07:50;;;;;;;6.82;1.98;;;19.80;91.60;;;;;;5019823;28;20034;-79
2022/08/28 00:10:18;;;;;;;7.75;2.45;;;19.80;91.80;;;;;;5016551;28;20037;-79
2022/08/28 00:12:46;;;;;;;8.38;2.15;;;19.80;91.90;;;;;;5011515;28;20038;-79
2022/08/28 00:15:16;;;;;;;6.70;2.42;;;19.80;92.00;;;;;;5018808;28;20046;-79
2022/08/28 00:17:42;;;;;;;9.60;2.30;;;19.80;92.10;;;;;;5009906;28;20422;-79
2022/08/28 00:20:46;;;;;;;3.72;1.70;;;19.70;92.10;;;;;;5007341;28;20172;-80
2022/08/28 00:23:13;;;;;;;5.38;2.15;;;19.80;92.00;;;;;;5008097;28;20045;-80
2022/08/28 00:25:39;;;;;;;6.35;2.42;;;19.60;92.20;;;;;;5003035;28;20100;-79
2022/08/28 00:28:08;;;;;;;5.03;2.30;;;19.60;92.30;;;;;;5008550;28;20502;-79
2022/08/28 00:30:38;;;;;;;9.63;2.13;;;19.70;92.30;;;;;;5003733;28;20622;-80
2022/08/28 00:33:11;;;;;;;5.55;2.17;;;19.50;92.10;;;;;;5000005;28;20454;-80
2022/08/28 00:35:39;;;;;;;6.90;2.43;;;19.40;92.30;;;;;;5008317;28;20084;-79
2022/08/28 00:38:06;;;;;;;11.05;2.13;;;19.50;92.40;;;;;;5021653;28;20031;-79
2022/08/28 00:40:32;;;;;;;6.63;1.98;;;19.40;92.20;;;;;;5010146;28;20093;-80
2022/08/28 00:43:00;;;;;;;12.25;2.95;;;19.40;92.30;;;;;;5021003;28;20031;-80
2022/08/28 00:45:26;;;;;;;26.27;5.72;;;19.40;92.30;;;;;;5004527;28;20023;-79
2022/08/28 00:47:52;;;;;;;16.75;2.10;;;19.50;92.30;;;;;;5014762;28;20026;-79
2022/08/28 00:50:22;;;;;;;6.78;2.10;;;19.50;92.20;;;;;;5010302;28;20449;-80
2022/08/28 00:52:53;;;;;;;6.45;1.88;;;19.30;92.30;;;;;;5018566;28;20037;-80
2022/08/28 00:55:22;;;;;;;13.20;2.60;;;19.40;92.30;;;;;;5008876;28;20022;-80
2022/08/28 00:57:57;;;;;;;7.93;2.90;;;19.30;92.40;;;;;;5010775;28;20026;-80
2022/08/28 01:00:30;;;;;;;6.45;1.58;;;19.40;92.40;;;;;;5012390;28;20029;-81
2022/08/28 01:02:57;;;;;;;4.90;2.08;;;19.30;92.40;;;;;;5023399;28;20030;-80
2022/08/28 01:05:24;;;;;;;10.30;2.03;;;19.40;92.30;;;;;;5013540;28;20038;-80
2022/08/28 01:07:51;;;;;;;6.68;1.80;;;19.10;92.10;;;;;;5017602;28;20033;-80
2022/08/28 01:10:21;;;;;;;11.48;2.58;;;19.10;92.30;;;;;;5008461;28;20053;-80
2022/08/28 01:12:48;;;;;;;10.85;1.83;;;19.10;92.40;;;;;;5022038;28;20115;-80
2022/08/28 01:15:18;;;;;;;7.72;2.17;;;19.10;92.10;;;;;;5017106;28;20034;-80
2022/08/28 01:17:52;;;;;;;6.65;1.83;;;19.10;92.40;;;;;;5023456;28;20030;-80
2022/08/28 01:20:19;;;;;;;;;;;19.10;92.00;;;;;;5006761;28;20088;-80
2022/08/28 01:23:16;;;;;;;7.55;1.90;;;19.10;92.20;;;;;;5004492;28;19913;-80
2022/08/28 01:25:42;;;;;;;7.63;1.80;;;19.10;92.30;;;;;;5008404;28;20037;-80
2022/08/28 01:28:11;;;;;;;11.70;2.83;;;19.00;92.40;;;;;;5029420;28;20034;-80
2022/08/28 01:30:38;;;;;;;8.25;1.67;;;19.00;92.10;;;;;;5013514;28;20537;-79
2022/08/28 01:33:04;;;;;;;7.63;2.50;;;19.10;92.30;;;;;;5017217;28;20092;-79
2022/08/28 01:35:33;;;;;;;7.53;2.03;;;19.10;92.20;;;;;;5008000;28;20708;-80
2022/08/28 01:38:00;;;;;;;7.55;2.13;;;19.10;92.30;;;;;;5016296;28;20041;-79
2022/08/28 01:40:48;;;;;;;9.45;2.42;;;19.10;92.40;;;;;;5014130;28;20076;-80
2022/08/28 01:43:20;;;;;;;8.25;1.70;;;19.10;92.30;;;;;;5016752;28;20049;-80
2022/08/28 01:45:51;;;;;;;13.75;2.28;;;19.20;92.20;;;;;;5018582;28;20418;-80
2022/08/28 01:48:19;;;;;;;7.47;2.10;;;19.10;92.10;;;;;;5014824;28;20502;-80
2022/08/28 01:50:45;;;;;;;13.93;3.65;;;19.10;92.00;;;;;;5010184;28;20026;-80
2022/08/28 01:53:14;;;;;;;7.60;1.85;;;19.00;92.20;;;;;;5021643;28;20125;-80
2022/08/28 01:55:41;;;;;;;5.47;2.03;;;19.00;92.10;;;;;;5000950;28;20026;-80
2022/08/28 01:58:08;;;;;;;5.38;2.08;;;18.90;92.30;;;;;;5027800;28;20023;-80
2022/08/28 02:00:34;;;;;;;11.45;2.42;;;19.00;92.30;;;;;;5025280;28;20025;-79
2022/08/28 02:03:00;;;;;;;8.13;1.98;;;19.10;92.40;;;;;;5038063;28;20067;-79
2022/08/28 02:05:29;;;;;;;4.53;1.83;;;18.90;92.20;;;;;;5015932;28;20391;-79
2022/08/28 02:07:56;;;;;;;4.57;1.80;;;18.90;92.30;;;;;;5014381;28;20398;-79
2022/08/28 02:10:24;;;;;;;7.80;2.03;;;18.90;92.30;;;;;;5011310;28;20036;-79
2022/08/28 02:12:54;;;;;;;7.75;1.80;;;18.80;92.30;;;;;;5040111;28;20097;-79
2022/08/28 02:15:21;;;;;;;7.93;2.15;;;18.80;92.20;;;;;;5021773;28;20061;-79
2022/08/28 02:17:47;;;;;;;10.13;2.05;;;18.70;92.40;;;;;;5034935;28;20056;-80
2022/08/28 02:20:14;;;;;;;12.02;2.30;;;18.70;92.50;;;;;;5047435;28;20409;-80
2022/08/28 02:22:39;;;;;;;7.93;2.13;;;18.70;92.70;;;;;;5031090;28;20022;-80
2022/08/28 02:25:07;;;;;;;10.90;2.15;;;18.80;92.70;;;;;;5039893;28;20053;-80
2022/08/28 02:27:33;;;;;;;10.07;2.17;;;18.70;92.60;;;;;;5028318;28;20203;-80
2022/08/28 02:29:59;;;;;;;8.45;2.25;;;18.60;92.60;;;;;;5029192;28;20059;-80
2022/08/28 02:32:25;;;;;;;10.55;2.45;;;18.60;92.70;;;;;;5027712;28;20030;-80
2022/08/28 02:34:52;;;;;;;5.70;1.90;;;18.70;92.60;;;;;;5034020;28;20025;-80
2022/08/28 02:37:19;;;;;;;9.38;2.00;;;18.70;92.70;;;;;;5022240;28;20049;-80
2022/08/28 02:39:45;;;;;;;8.90;2.42;;;18.50;92.80;;;;;;5025044;28;20087;-80
2022/08/28 02:42:11;;;;;;;7.60;2.78;;;18.50;92.80;;;;;;5022259;28;20010;-79
2022/08/28 02:44:37;;;;;;;8.70;2.25;;;18.50;92.80;;;;;;5024699;28;20030;-79
2022/08/28 02:47:04;;;;;;;6.78;1.95;;;18.60;92.80;;;;;;5026926;28;20058;-80
2022/08/28 02:49:30;;;;;;;11.13;2.40;;;18.40;92.80;;;;;;5028135;28;20037;-80
2022/08/28 02:51:57;;;;;;;9.07;1.92;;;18.40;92.90;;;;;;5026388;28;20029;-80
2022/08/28 02:54:25;;;;;;;7.93;2.53;;;18.30;93.10;;;;;;5032156;28;20018;-80
2022/08/28 02:56:51;;;;;;;6.70;1.95;;;18.30;93.10;;;;;;5039784;28;20694;-80
2022/08/28 02:59:18;;;;;;;5.70;2.25;;;18.30;93.10;;;;;;5025131;28;20026;-80
2022/08/28 03:01:43;;;;;;;5.22;2.00;;;18.20;93.20;;;;;;5013617;28;20028;-79
2022/08/28 03:04:10;;;;;;;10.00;2.53;;;18.30;93.30;;;;;;5027627;28;20090;-80
2022/08/28 03:06:35;;;;;;;6.90;1.80;;;18.20;93.40;;;;;;5040281;28;20022;-80
2022/08/28 03:09:02;;;;;;;9.00;2.10;;;18.10;93.40;;;;;;5022120;28;20030;-79
2022/08/28 03:11:27;;;;;;;9.52;2.00;;;18.20;93.50;;;;;;5027880;28;20065;-80
2022/08/28 03:13:54;;;;;;;7.70;2.65;;;18.10;93.40;;;;;;5043346;28;20037;-79
2022/08/28 03:16:20;;;;;;;6.60;2.15;;;18.20;93.40;;;;;;5011223;28;20061;-80
2022/08/28 03:18:46;;;;;;;6.13;2.35;;;18.30;93.30;;;;;;5041361;28;20025;-79
2022/08/28 03:21:12;;;;;;;6.75;1.70;;;18.30;93.30;;;;;;5020847;28;20398;-79
2022/08/28 03:23:38;;;;;;;6.72;2.10;;;18.20;93.50;;;;;;5028282;28;20022;-80
2022/08/28 03:26:11;;;;;;;7.38;2.03;;;18.30;93.30;;;;;;5033999;28;20053;-80
2022/08/28 03:28:58;;;;;;;5.90;1.85;;;18.30;93.30;;;;;;5022330;28;20084;-80
2022/08/28 03:31:26;;;;;;;5.93;1.80;;;18.40;93.00;;;;;;5029343;28;20121;-79
2022/08/28 03:33:53;;;;;;;6.47;2.58;;;18.40;93.00;;;;;;5033742;28;20045;-80
2022/08/28 03:36:23;;;;;;;8.00;2.42;;;18.30;93.20;;;;;;5023578;28;20018;-80
2022/08/28 03:38:51;;;;;;;7.90;2.03;;;18.20;93.20;;;;;;5020550;28;20089;-80
2022/08/28 03:41:19;;;;;;;10.60;2.33;;;18.20;93.20;;;;;;5036070;28;20121;-80
2022/08/28 03:43:45;;;;;;;8.25;2.22;;;18.20;93.40;;;;;;5038140;28;20039;-79
2022/08/28 03:46:19;;;;;;;10.98;3.05;;;18.20;93.30;;;;;;5013114;28;20061;-79
2022/08/28 03:48:45;;;;;;;11.48;2.10;;;18.30;93.30;;;;;;5021142;28;20029;-80
2022/08/28 03:51:17;;;;;;;8.18;2.35;;;18.20;93.20;;;;;;5020891;28;20101;-80
2022/08/28 03:53:43;;;;;;;6.05;2.20;;;18.20;93.30;;;;;;5039241;28;20036;-80
2022/08/28 03:56:15;;;;;;;8.30;2.95;;;18.10;93.30;;;;;;5017610;28;20022;-79
2022/08/28 03:58:42;;;;;;;7.57;2.10;;;18.10;93.50;;;;;;5034186;28;20033;-79
2022/08/28 04:01:08;;;;;;;10.15;2.90;;;18.00;93.60;;;;;;5032560;28;20032;-80
2022/08/28 04:03:35;;;;;;;6.65;2.00;;;18.00;93.60;;;;;;5025987;28;20036;-80
2022/08/28 04:06:01;;;;;;;6.82;2.30;;;17.90;93.80;;;;;;5024142;28;20057;-79
2022/08/28 04:08:28;;;;;;;6.40;2.30;;;18.00;93.70;;;;;;5018741;28;20038;-79
2022/08/28 04:10:54;;;;;;;9.95;2.90;;;18.00;93.50;;;;;;5043368;28;20120;-79
2022/08/28 04:13:21;;;;;;;6.68;2.20;;;18.00;93.70;;;;;;5022852;28;20030;-79
2022/08/28 04:16:04;;;;;;;8.65;2.85;;;17.90;93.60;;;;;;5024802;28;20026;-79
2022/08/28 04:18:30;;;;;;;6.82;1.80;;;17.90;93.60;;;;;;5019738;28;20033;-79
2022/08/28 04:21:01;;;;;;;10.63;2.25;;;17.90;93.70;;;;;;5007282;28;20023;-81
2022/08/28 04:23:28;;;;;;;13.65;2.58;;;18.00;93.60;;;;;;5005912;28;20058;-79
2022/08/28 04:25:54;;;;;;;9.65;2.22;;;18.00;93.60;;;;;;5013463;28;20034;-80
2022/08/28 04:28:21;;;;;;;8.00;3.00;;;17.90;93.70;;;;;;5019784;28;20037;-81
2022/08/28 04:30:55;;;;;;;10.50;2.60;;;17.80;93.80;;;;;;5014835;28;20474;-82
2022/08/28 04:33:26;;;;;;;11.38;2.75;;;17.70;94.00;;;;;;5011236;28;20093;-82
2022/08/28 04:35:52;;;;;;;12.13;2.85;;;17.70;94.00;;;;;;5013854;28;20022;-80
2022/08/28 04:38:18;;;;;;;6.68;2.17;;;17.70;94.10;;;;;;5025200;28;20052;-79
2022/08/28 04:40:44;;;;;;;11.60;2.67;;;17.70;94.00;;;;;;5008233;28;20026;-80
2022/08/28 04:43:11;;;;;;;16.48;2.58;;;17.60;94.20;;;;;;5007699;28;20131;-80
2022/08/28 04:45:42;;;;;;;10.88;2.90;;;17.50;94.30;;;;;;5008840;28;20025;-80
2022/08/28 04:48:09;;;;;;;13.95;3.30;;;17.50;94.30;;;;;;5015334;28;20485;-80
2022/08/28 04:50:42;;;;;;;9.82;2.58;;;17.50;94.40;;;;;;5020303;28;20116;-80
2022/08/28 04:53:08;;;;;;;11.73;3.20;;;17.50;94.40;;;;;;5014689;28;20040;-81
2022/08/28 04:55:40;;;;;;;9.30;3.42;;;17.40;94.50;;;;;;5015124;28;20080;-79
2022/08/28 04:58:06;;;;;;;12.05;3.50;;;17.50;94.50;;;;;;5027880;28;20034;-80
2022/08/28 05:00:32;;;;;;;8.10;3.10;;;17.40;94.40;;;;;;5007076;28;20045;-81
2022/08/28 05:02:58;;;;;;;10.93;3.00;;;17.50;94.20;;;;;;5015216;28;20108;-80
2022/08/28 05:05:24;;;;;;;11.77;3.53;;;17.50;94.20;;;;;;5043840;28;20134;-80
2022/08/28 05:07:50;;;;;;;14.48;4.30;;;17.40;94.30;;;;;;5034908;28;20390;-80
2022/08/28 05:10:15;;;;;;;14.68;3.13;;;17.40;94.20;;;;;;5012791;28;20102;-81
2022/08/28 05:12:41;;;;;;;9.45;3.30;;;17.40;94.00;;;;;;5009449;28;20032;-81
2022/08/28 05:15:08;;;;;;;13.35;4.13;;;17.30;94.20;;;;;;5000211;28;20077;-80
2022/08/28 05:17:33;;;;;;;12.63;3.20;;;17.50;94.00;;;;;;5009152;28;20517;-79
2022/08/28 05:19:59;;;;;;;13.63;3.70;;;17.40;93.90;;;;;;5004777;28;20029;-80
2022/08/28 05:22:27;;;;;;;10.43;3.70;;;17.50;93.70;;;;;;5020284;28;20029;-79
2022/08/28 05:24:53;;;;;;;16.70;3.92;;;17.30;94.10;;;;;;5018144;28;20029;-80
2022/08/28 05:27:19;;;;;;;15.52;4.65;;;17.30;94.10;;;;;;5025451;28;20030;-80
2022/08/28 05:29:45;;;;;;;15.73;4.05;;;17.00;94.50;;;;;;5027185;28;20030;-80
2022/08/28 05:32:11;;;;;;;15.40;4.43;;;17.00;94.60;;;;;;5012268;28;20030;-80
2022/08/28 05:34:37;;;;;;;10.23;3.83;;;17.00;94.60;;;;;;5038687;28;20047;-80
2022/08/28 05:37:05;;;;;;;11.90;3.85;;;17.00;94.50;;;;;;5018321;28;20391;-80
2022/08/28 05:39:31;;;;;;;15.88;4.43;;;17.20;94.60;;;;;;5023121;28;20457;-80
2022/08/28 05:41:56;;;;;;;15.60;3.97;;;17.20;94.30;;;;;;5031496;28;20502;-80
2022/08/28 05:44:23;;;;;;;12.00;3.80;;;17.30;94.40;;;;;;5017778;28;20104;-79
2022/08/28 05:46:49;;;;;;;14.75;4.10;;;17.40;94.20;;;;;;5015205;28;20453;-79
2022/08/28 05:49:17;;;;;;;11.77;4.18;;;17.40;94.20;;;;;;5008883;28;20491;-80
2022/08/28 05:51:44;;;;;;;12.55;3.92;;;17.30;94.10;;;;;;5026288;28;20030;-79
2022/08/28 05:54:11;;;;;;;14.80;4.15;;;17.30;94.30;;;;;;5015101;28;20030;-79
2022/08/28 05:56:39;;;;;;;19.65;4.57;;;17.40;94.10;;;;;;5010946;28;20017;-79
2022/08/28 05:59:06;;;;;;;14.40;4.35;;;17.30;94.00;;;;;;5025979;28;20029;-80
2022/08/28 06:01:41;;;;;;;13.93;4.25;;;17.30;94.30;;;;;;5024723;28;20455;-81
2022/08/28 06:04:16;;;;;;;14.38;4.28;;;17.40;94.00;;;;;;5026397;28;20029;-81
2022/08/28 06:06:43;;;;;;;15.38;4.50;;;17.20;94.10;;;;;;5013753;28;20123;-81
2022/08/28 06:09:16;;;;;;;15.25;5.03;;;17.20;94.30;;;;;;5032884;28;20117;-80
2022/08/28 06:11:43;;;;;;;17.13;4.07;;;17.20;94.20;;;;;;5012617;28;20510;-80
2022/08/28 06:14:10;;;;;;;10.90;4.45;;;17.20;94.50;;;;;;5004684;28;20109;-80
2022/08/28 06:16:39;;;;;;;14.88;4.40;;;17.30;94.60;;;;;;5019500;28;20133;-80
2022/08/28 06:19:08;;;;;;;25.35;4.68;;;17.30;94.30;;;;;;5022962;28;20387;-80
2022/08/28 06:21:34;;;;;;;16.02;4.30;;;17.50;93.80;;;;;;5033215;28;20029;-81
2022/08/28 06:24:00;;;;;;;24.13;5.45;;;17.60;93.90;;;;;;5011676;28;20490;-80
2022/08/28 06:26:26;;;;;;;13.73;4.63;;;17.50;93.90;;;;;;5008140;28;20032;-81
2022/08/28 06:28:52;;;;;;;18.77;5.00;;;17.50;93.90;;;;;;5010706;28;20026;-81
2022/08/28 06:31:18;;;;;;;18.10;5.00;;;17.60;93.70;;;;;;5020404;28;20065;-80
2022/08/28 06:33:45;;;;;;;12.43;4.53;;;17.50;93.90;;;;;;5021296;28;20030;-81
2022/08/28 06:36:16;;;;;;;14.38;4.53;;;17.40;93.70;;;;;;5000454;28;20054;-80
2022/08/28 06:38:45;;;;;;;14.18;4.43;;;17.50;94.00;;;;;;5000122;28;20046;-81
2022/08/28 06:41:12;;;;;;;12.43;4.50;;;17.50;93.80;;;;;;5020950;28;20030;-80
2022/08/28 06:43:38;;;;;;;16.75;5.28;;;17.70;94.00;;;;;;5015303;28;20144;-80
2022/08/28 06:46:04;;;;;;;16.27;4.30;;;17.60;94.00;;;;;;5017908;28;20069;-80
2022/08/28 06:48:30;;;;;;;15.95;5.30;;;17.70;93.60;;;;;;5013462;28;20030;-80
2022/08/28 06:50:57;;;;;;;16.95;5.30;;;17.80;93.80;;;;;;5033221;28;20026;-80
2022/08/28 06:53:26;;;;;;;15.98;4.05;;;17.80;93.50;;;;;;5023873;28;20097;-80
2022/08/28 06:55:59;;;;;;;15.52;4.85;;;18.00;93.70;;;;;;5015166;28;20384;-81
2022/08/28 06:58:26;;;;;;;17.48;4.97;;;18.00;93.00;;;;;;5010329;28;20505;-80
2022/08/28 07:01:00;;;;;;;11.20;4.00;;;17.90;93.30;;;;;;5034927;28;20025;-80
2022/08/28 07:03:28;;;;;;;21.50;4.20;;;17.80;93.20;;;;;;5011993;28;20056;-79
2022/08/28 07:05:56;;;;;;;14.55;4.35;;;17.90;93.30;;;;;;5023088;28;20040;-80
2022/08/28 07:08:24;;;;;;;17.02;5.38;;;17.90;93.30;;;;;;5024596;28;20062;-79
2022/08/28 07:10:50;;;;;;;10.75;4.63;;;17.90;93.30;;;;;;5026618;28;20068;-81
2022/08/28 07:13:15;;;;;;;13.88;4.38;;;17.90;93.10;;;;;;5035480;28;20034;-80
2022/08/28 07:15:41;;;;;;;18.33;4.63;;;18.00;93.40;;;;;;5007265;28;20021;-80
2022/08/28 07:18:07;;;;;;;13.25;4.40;;;18.20;93.20;;;;;;5010360;28;20038;-78
2022/08/28 07:20:33;;;;;;;17.90;5.22;;;18.30;93.00;;;;;;5010922;28;20074;-81
2022/08/28 07:22:58;;;;;;;15.63;5.40;;;18.50;93.00;;;;;;5036881;28;20120;-82
2022/08/28 07:25:25;;;;;;;16.88;5.55;;;18.60;92.30;;;;;;5013076;28;20044;-80
2022/08/28 07:27:51;;;;;;;18.90;4.60;;;18.70;92.40;;;;;;5011849;28;20615;-80
2022/08/28 07:30:17;;;;;;;13.57;4.30;;;18.80;92.00;;;;;;5009645;28;20034;-80
2022/08/28 07:32:43;;;;;;;16.23;4.50;;;19.00;92.00;;;;;;5005751;28;20032;-80
2022/08/28 07:35:09;;;;;;;17.42;4.85;;;19.20;91.80;;;;;;5016234;28;20072;-80
2022/08/28 07:37:34;;;;;;;12.10;4.40;;;19.10;91.50;;;;;;5012467;28;20059;-80
2022/08/28 07:40:00;;;;;;;13.55;4.82;;;19.20;91.40;;;;;;5013006;28;20460;-80
2022/08/28 07:45:10;;;;;;;18.08;5.13;;;19.10;91.00;;;;;;5011983;28;20064;-79
2022/08/28 07:47:37;;;;;;;15.93;4.93;;;18.90;91.70;;;;;;5017108;28;20034;-80
2022/08/28 07:50:03;;;;;;;11.13;4.47;;;18.70;91.50;;;;;;5017645;28;20033;-80
2022/08/28 07:52:29;;;;;;;15.45;5.13;;;18.80;91.60;;;;;;5002206;28;20027;-80
2022/08/28 07:54:56;;;;;;;19.05;5.95;;;18.90;91.50;;;;;;5018556;28;20052;-80
2022/08/28 07:57:22;;;;;;;16.92;5.38;;;19.10;91.50;;;;;;5014779;28;20038;-80
2022/08/28 07:59:48;;;;;;;11.23;5.15;;;19.10;91.40;;;;;;5027308;28;20028;-80
2022/08/28 08:02:14;;;;;;;23.95;4.88;;;19.10;91.30;;;;;;5003087;28;20027;-80
2022/08/28 08:04:40;;;;;;;15.45;5.43;;;19.10;91.30;;;;;;5002675;28;20026;-79
2022/08/28 08:07:07;;;;;;;19.23;4.45;;;19.20;90.90;;;;;;5008714;28;20030;-80
2022/08/28 08:09:37;;;;;;;15.18;4.75;;;19.10;90.90;;;;;;5015114;28;20025;-80
2022/08/28 08:12:04;;;;;;;16.38;4.25;;;19.20;90.90;;;;;;5013121;28;20029;-80
2022/08/28 08:14:30;;;;;;;12.40;4.10;;;19.10;90.50;;;;;;5016206;28;20030;-80
2022/08/28 08:17:00;;;;;;;13.48;4.00;;;19.20;90.90;;;;;;5026913;28;20141;-80
2022/08/28 08:19:26;;;;;;;15.40;4.10;;;19.10;91.10;;;;;;5017628;28;20018;-80
2022/08/28 08:21:52;;;;;;;17.50;5.20;;;19.00;90.70;;;;;;5002241;28;20030;-82
2022/08/28 08:24:19;;;;;;;16.02;4.30;;;18.90;91.00;;;;;;5018367;28;20039;-81
2022/08/28 08:26:49;;;;;;;13.80;5.10;;;18.80;91.10;;;;;;5017973;28;20497;-79
2022/08/28 08:29:16;;;;;;;11.93;4.22;;;18.60;91.50;;;;;;5011360;28;20034;-80
2022/08/28 08:31:42;;;;;;;13.75;4.68;;;18.80;91.70;;;;;;5034363;28;20064;-80
2022/08/28 08:34:08;;;;;;;16.60;4.60;;;19.10;91.60;;;;;;5003578;28;20026;-81
2022/08/28 08:36:36;;;;;;;16.30;4.50;;;19.10;91.30;;;;;;5020234;28;20325;-80
2022/08/28 08:39:07;;;;;;;10.15;3.78;;;19.00;90.90;;;;;;5009701;28;20032;-81
2022/08/28 08:42:04;;;;;;;16.88;4.03;;;19.10;91.10;;;;;;5009005;28;20034;-80
2022/08/28 08:44:32;;;;;;;11.25;3.20;;;19.30;90.80;;;;;;5005538;28;20430;-80
2022/08/28 08:47:12;;;;;;;13.27;3.85;;;19.20;90.70;;;;;;5014543;28;20495;-81
2022/08/28 08:49:42;;;;;;;15.68;3.53;;;19.30;90.30;;;;;;5006448;28;20029;-79
2022/08/28 08:52:10;;;;;;;14.23;3.58;;;19.10;90.00;;;;;;5006716;28;20037;-80
2022/08/28 08:54:41;;;;;;;11.80;4.13;;;19.10;90.00;;;;;;5003829;28;20618;-79
2022/08/28 08:57:11;;;;;;;11.52;3.70;;;19.00;90.40;;;;;;5002015;28;20033;-79
2022/08/28 08:59:38;;;;;;;20.65;4.15;;;19.00;90.20;;;;;;5018529;28;20018;-80
2022/08/28 09:02:13;;;;;;;13.18;3.45;;;19.20;90.60;;;;;;5003099;28;20022;-80
2022/08/28 09:04:39;;;;;;;13.77;3.55;;;19.10;90.50;;;;;;5006209;28;20022;-80
2022/08/28 09:07:31;;;;;;;16.55;4.07;;;19.10;90.40;;;;;;5003980;28;20030;-80
2022/08/28 09:09:57;;;;;;;12.23;3.17;;;19.30;90.60;;;;;;5006722;28;20034;-80
2022/08/28 09:12:26;;;;;;;7.15;2.80;;;19.50;90.10;;;;;;5012858;28;20026;-81
2022/08/28 09:15:08;;;;;;;11.23;3.80;;;19.40;90.30;;;;;;5033438;28;20488;-83
2022/08/28 09:17:43;;;;;;;12.30;3.22;;;19.50;89.80;;;;;;5041571;28;20040;-81
2022/08/28 09:20:11;;;;;;;14.65;4.68;;;19.60;90.30;;;;;;5014931;28;20049;-79
2022/08/28 09:22:42;;;;;;;13.95;4.18;;;19.80;90.10;;;;;;5022035;28;20117;-81
2022/08/28 09:25:09;;;;;;;11.45;3.10;;;19.80;89.60;;;;;;5020663;28;20058;-81
2022/08/28 09:27:46;;;;;;;13.07;3.45;;;19.90;89.40;;;;;;5018394;28;20038;-80
2022/08/28 09:30:15;;;;;;;11.32;3.15;;;19.80;88.20;;;;;;5016069;28;20153;-80
2022/08/28 09:32:44;;;;;;;13.77;3.35;;;19.60;89.30;;;;;;5024855;28;20029;-80
2022/08/28 09:35:32;;;;;;;14.13;3.50;;;19.70;89.50;;;;;;5009812;28;20022;-79
2022/08/28 09:38:19;;;;;;;12.85;3.40;;;19.60;89.30;;;;;;5018212;28;20041;-79
2022/08/28 09:43:32;;;;;;;10.98;3.10;;;19.50;89.10;;;;;;5013856;28;20048;-79
2022/08/28 09:46:09;;;;;;;9.77;3.58;;;19.50;88.70;;;;;;5018765;28;20623;-80
2022/08/28 09:48:36;;;;;;;13.85;3.17;;;19.70;87.70;;;;;;5010729;28;20509;-78
2022/08/28 09:51:26;;;;;;;11.80;3.47;;;19.80;88.20;;;;;;5006693;28;20042;-80
2022/08/28 09:53:53;;;;;;;14.77;3.90;;;20.00;88.20;;;;;;5001386;28;20532;-80
2022/08/28 09:56:34;;;;;;;8.45;3.15;;;20.00;88.70;;;;;;4996751;28;20042;-80
2022/08/28 09:59:41;;;;;;;8.27;3.30;;;20.00;87.70;;;;;;5005576;28;20030;-80
2022/08/28 10:02:24;;;;;;;;;;;19.90;87.10;;;;;;5005294;28;20062;-80
2022/08/28 10:05:23;;;;;;;10.68;3.38;;;20.00;85.10;;;;;;5016183;28;19909;-79
2022/08/28 10:08:23;;;;;;;10.55;2.67;;;19.80;86.90;;;;;;5028679;28;20041;-80
2022/08/28 10:10:56;;;;;;;6.32;3.08;;;19.80;86.60;;;;;;5017386;28;20029;-79
2022/08/28 10:13:43;;;;;;;9.27;3.28;;;19.70;85.80;;;;;;5034780;28;20026;-79
2022/08/28 10:16:37;;;;;;;9.20;3.30;;;19.80;87.10;;;;;;5013718;28;20145;-79
2022/08/28 10:19:42;;;;;;;10.43;3.00;;;19.80;86.10;;;;;;5043870;28;20034;-79
2022/08/28 10:22:32;;;;;;;16.08;3.05;;;20.00;86.10;;;;;;5031542;28;20033;-81
2022/08/28 10:25:02;;;;;;;12.30;3.38;;;20.10;84.20;;;;;;5009564;28;20039;-80
2022/08/28 10:27:54;;;;;;;14.18;3.50;;;20.20;85.50;;;;;;5028616;28;20038;-79
2022/08/28 10:30:22;;;;;;;13.73;3.58;;;20.20;85.30;;;;;;5008694;28;20057;-79
2022/08/28 10:33:12;;;;;;;10.90;3.63;;;20.10;85.30;;;;;;5007229;28;20525;-79
2022/08/28 10:36:02;;;;;;;13.48;3.38;;;20.10;84.40;;;;;;5008107;28;20050;-79
2022/08/28 10:38:50;;;;;;;11.25;2.78;;;20.00;85.40;;;;;;5014120;28;20034;-79
2022/08/28 10:41:24;;;;;;;12.32;3.42;;;20.20;84.90;;;;;;5019011;28;20050;-80
2022/08/28 10:43:52;;;;;;;11.80;3.72;;;20.20;84.80;;;;;;5015136;28;20034;-80
2022/08/28 10:46:23;;;;;;;12.52;3.40;;;20.40;85.20;;;;;;5010564;28;20074;-79
2022/08/28 10:48:51;;;;;;;9.93;3.50;;;20.40;85.20;;;;;;5021023;28;20026;-79
2022/08/28 10:51:42;;;;;;;10.90;4.32;;;20.20;83.90;;;;;;5008980;28;20038;-81
2022/08/28 10:54:30;;;;;;;10.25;3.20;;;20.20;84.60;;;;;;4999503;28;20092;-81
2022/08/28 10:57:08;;;;;;;9.57;3.20;;;20.20;84.00;;;;;;5007001;28;20025;-81
2022/08/28 10:59:35;;;;;;;8.25;2.92;;;20.30;84.60;;;;;;5015111;28;20544;-80
2022/08/28 11:02:05;;;;;;;8.75;3.08;;;20.20;83.90;;;;;;5000664;28;20169;-80
2022/08/28 11:04:31;;;;;;;7.25;2.17;;;20.30;84.20;;;;;;5029436;28;20037;-80
2022/08/28 11:07:08;;;;;;;10.50;2.88;;;20.40;82.30;;;;;;5001229;28;20392;-81
2022/08/28 11:09:38;;;;;;;11.55;3.03;;;20.40;81.10;;;;;;5002772;28;20452;-79
2022/08/28 11:12:26;;;;;;;7.95;2.17;;;20.40;81.30;;;;;;5001151;28;20026;-81
2022/08/28 11:14:51;;;;;;;8.32;2.35;;;20.40;82.10;;;;;;5003836;28;20026;-80
2022/08/28 11:17:26;;;;;;;4.95;2.78;;;20.40;81.90;;;;;;5004008;28;20042;-79
2022/08/28 11:20:23;;;;;;;8.63;2.97;;;20.50;81.90;;;;;;5006286;28;20093;-81
2022/08/28 11:23:07;;;;;;;6.20;2.45;;;20.60;81.90;;;;;;4999736;28;20034;-79
2022/08/28 11:25:47;;;;;;;9.27;2.70;;;20.70;80.90;;;;;;5002742;28;20066;-79
2022/08/28 11:28:24;;;;;;;6.88;2.35;;;20.60;79.50;;;;;;5004063;28;20688;-80
2022/08/28 11:31:05;;;;;;;7.47;1.90;;;20.60;80.50;;;;;;5017293;28;20036;-80
2022/08/28 11:33:40;;;;;;;8.35;2.80;;;20.60;80.40;;;;;;5004092;28;20033;-79
2022/08/28 11:36:19;;;;;;;8.43;3.05;;;20.50;80.40;;;;;;5008305;28;20030;-80
2022/08/28 11:38:45;;;;;;;10.25;3.80;;;20.50;81.10;;;;;;5002695;28;20021;-79
2022/08/28 11:41:21;;;;;;;8.00;2.38;;;20.60;81.20;;;;;;5004129;28;20045;-79
2022/08/28 11:44:12;;;;;;;12.30;2.60;;;20.50;81.00;;;;;;5008823;28;20022;-80
2022/08/28 11:47:03;;;;;;;7.15;2.83;;;20.50;79.10;;;;;;5002243;28;20033;-80
2022/08/28 11:49:32;;;;;;;8.73;3.28;;;20.50;80.10;;;;;;5015115;28;20069;-79
2022/08/28 11:52:29;;;;;;;7.90;2.50;;;20.50;80.80;;;;;;5006174;28;20088;-80
2022/08/28 11:55:28;;;;;;;8.68;2.13;;;20.60;81.00;;;;;;5001417;28;20042;-79
2022/08/28 11:57:59;;;;;;;7.50;2.60;;;20.60;80.70;;;;;;5005887;28;20041;-79
2022/08/28 12:00:40;;;;;;;8.63;2.75;;;20.70;80.30;;;;;;4998748;28;20034;-77
2022/08/28 12:03:25;;;;;;;7.97;2.30;;;20.90;80.90;;;;;;5008374;28;20029;-80
2022/08/28 12:05:56;;;;;;;7.63;2.45;;;20.90;80.20;;;;;;5007288;28;20025;-80
2022/08/28 12:08:43;;;;;;;11.15;3.17;;;21.00;80.60;;;;;;5019628;28;20042;-79
2022/08/28 12:11:38;;;;;;;9.80;2.40;;;21.00;79.70;;;;;;5014845;28;20075;-81
2022/08/28 12:14:30;;;;;;;10.93;2.58;;;21.10;80.20;;;;;;5007252;28;20062;-80
2022/08/28 12:17:07;;;;;;;7.53;2.47;;;21.20;79.10;;;;;;5006635;28;20386;-79
2022/08/28 12:19:55;;;;;;;12.35;2.00;;;21.30;80.20;;;;;;5012494;28;20041;-80
2022/08/28 12:22:25;;;;;;;6.32;1.95;;;21.30;77.00;;;;;;5008491;28;20207;-79
2022/08/28 12:25:01;;;;;;;10.00;2.25;;;21.30;77.20;;;;;;5012517;28;20158;-79
2022/08/28 12:27:28;;;;;;;7.72;2.90;;;21.40;78.10;;;;;;5024786;28;20045;-80
2022/08/28 12:29:56;;;;;;;8.80;2.13;;;21.40;78.20;;;;;;5025951;28;20026;-80
2022/08/28 12:32:41;;;;;;;10.85;2.80;;;21.40;79.20;;;;;;5008047;28;20054;-79
2022/08/28 12:35:24;;;;;;;8.95;2.70;;;21.50;79.00;;;;;;5008618;28;20018;-80
2022/08/28 12:37:52;;;;;;;8.68;2.45;;;21.40;78.60;;;;;;5012754;28;20026;-81
2022/08/28 12:40:28;;;;;;;9.95;2.97;;;21.40;78.00;;;;;;5025443;28;20117;-78
2022/08/28 12:43:01;;;;;;;11.32;3.33;;;21.40;78.20;;;;;;5029602;28;20030;-81
2022/08/28 12:45:35;;;;;;;12.20;2.50;;;21.40;78.90;;;;;;5014329;28;20038;-81
2022/08/28 12:48:11;;;;;;;6.57;1.92;;;21.40;76.70;;;;;;5027329;28;20038;-80
2022/08/28 12:50:38;;;;;;;7.00;2.55;;;21.50;77.10;;;;;;5006309;28;20099;-79
2022/08/28 12:53:13;;;;;;;6.03;2.50;;;21.50;77.90;;;;;;5013618;28;20033;-80
2022/08/28 12:55:39;;;;;;;5.35;2.08;;;21.50;77.70;;;;;;5011921;28;20040;-79
2022/08/28 12:58:25;;;;;;;8.65;2.33;;;21.60;78.20;;;;;;5012254;28;20042;-79
2022/08/28 13:00:58;;;;;;;5.13;1.83;;;21.60;77.30;;;;;;5023230;28;20022;-79
2022/08/28 13:03:24;;;;;;;6.28;2.00;;;21.60;78.00;;;;;;5025035;28;20031;-79
2022/08/28 13:06:04;;;;;;;7.70;2.15;;;21.60;76.70;;;;;;5021123;28;20026;-80